createdAt,value
2022-09-22T00:02:04.636Z,67.78
2022-09-22T00:04:51.495Z,67.33
2022-09-22T00:07:38.460Z,67.81
2022-09-22T00:10:22.650Z,68.13
2022-09-22T00:13:10.433Z,68.00
2022-09-22T00:15:50.956Z,68.28
2022-09-22T00:18:37.406Z,68.16
2022-09-22T00:21:20.739Z,67.89
2022-09-22T00:24:08.464Z,67.88
2022-09-22T00:27:04.433Z,67.68
2022-09-22T00:29:44.876Z,68.16
2022-09-22T00:32:31.397Z,68.06
2022-09-22T00:35:11.875Z,67.88
2022-09-22T00:37:58.458Z,67.81
2022-09-22T00:40:38.920Z,68.07
2022-09-22T00:43:31.427Z,68.19
2022-09-22T00:46:22.743Z,68.29
2022-09-22T00:49:13.429Z,68.32
2022-09-22T00:52:00.418Z,68.13
2022-09-22T00:54:41.515Z,68.44
2022-09-22T00:57:31.426Z,68.17
2022-09-22T01:00:14.531Z,68.73
2022-09-22T01:03:05.411Z,69.26
2022-09-22T01:05:47.489Z,69.19
2022-09-22T01:08:36.365Z,69.56
2022-09-22T01:11:23.413Z,68.94
2022-09-22T01:14:22.192Z,69.25
2022-09-22T01:17:12.394Z,70.00
2022-09-22T01:20:21.386Z,69.32
2022-09-22T01:23:32.486Z,69.51
2022-09-22T01:26:33.359Z,69.95
2022-09-22T01:29:42.484Z,70.07
2022-09-22T01:32:29.359Z,69.90
2022-09-22T01:35:23.434Z,69.81
2022-09-22T01:38:10.341Z,70.00
2022-09-22T01:41:09.518Z,70.30
2022-09-22T01:44:02.350Z,70.03
2022-09-22T01:46:54.324Z,70.04
2022-09-22T01:49:40.014Z,70.01
2022-09-22T01:52:34.313Z,70.71
2022-09-22T01:55:31.997Z,70.66
2022-09-22T01:58:25.326Z,70.21
2022-09-22T02:01:29.431Z,70.68
2022-09-22T02:04:16.431Z,70.98
2022-09-22T02:07:13.343Z,70.74
2022-09-22T02:10:03.342Z,70.17
2022-09-22T02:12:44.082Z,70.43
2022-09-22T02:15:51.354Z,70.90
2022-09-22T02:19:11.850Z,70.89
2022-09-22T02:21:54.285Z,70.62
2022-09-22T02:24:52.298Z,70.93
2022-09-22T02:27:46.308Z,70.59
2022-09-22T02:30:34.296Z,70.60
2022-09-22T02:33:14.347Z,70.80
2022-09-22T02:36:21.310Z,71.22
2022-09-22T02:39:49.268Z,70.58
2022-09-22T02:42:36.595Z,70.92
2022-09-22T02:45:31.263Z,71.35
2022-09-22T02:48:37.249Z,71.32
2022-09-22T02:51:18.492Z,71.86
2022-09-22T02:54:05.377Z,71.71
2022-09-22T02:56:45.552Z,71.81
2022-09-22T02:59:32.258Z,71.50
2022-09-22T03:02:12.340Z,71.31
2022-09-22T03:04:59.277Z,71.19
2022-09-22T03:25:54.882Z,74.77
2022-09-22T03:28:35.646Z,74.30
2022-09-22T03:31:23.997Z,74.11
2022-09-22T03:34:10.825Z,73.64
2022-09-22T03:36:51.139Z,73.01
2022-09-22T03:39:37.846Z,73.45
2022-09-22T03:42:17.997Z,73.55
2022-09-22T03:45:04.813Z,72.16
2022-09-22T03:47:51.852Z,72.03
2022-09-22T03:50:32.233Z,72.72
2022-09-22T03:53:18.833Z,73.09
2022-09-22T03:56:17.826Z,72.76
2022-09-22T03:59:04.818Z,72.97
2022-09-22T04:01:54.805Z,73.05
2022-09-22T04:04:44.787Z,72.90
2022-09-22T04:07:31.839Z,73.16
2022-09-22T04:10:11.937Z,73.31
2022-09-22T04:12:58.747Z,72.75
2022-09-22T04:15:38.866Z,72.83
2022-09-22T04:18:25.827Z,72.89
2022-09-22T04:21:05.869Z,73.11
2022-09-22T04:23:52.775Z,73.22
2022-09-22T04:26:32.866Z,73.15
2022-09-22T04:29:19.803Z,72.89
2022-09-22T04:31:59.903Z,72.64
2022-09-22T04:34:46.769Z,73.02
2022-09-22T04:37:26.892Z,72.22
2022-09-22T04:40:13.819Z,72.66
2022-09-22T04:42:53.958Z,72.53
2022-09-22T04:45:40.783Z,72.22
2022-09-22T04:48:28.779Z,72.07
2022-09-22T04:51:15.761Z,72.11
2022-09-22T04:54:02.748Z,71.47
2022-09-22T04:56:43.334Z,71.02
2022-09-22T04:59:29.750Z,70.99
2022-09-22T05:02:16.751Z,71.38
2022-09-22T05:04:56.836Z,71.11
2022-09-22T05:07:48.752Z,70.83
2022-09-22T05:10:34.504Z,70.34
2022-09-22T05:13:21.719Z,70.16
2022-09-22T05:16:02.157Z,69.67
2022-09-22T05:18:48.758Z,70.60
2022-09-22T05:21:35.733Z,69.98
2022-09-22T05:24:16.054Z,70.17
2022-09-22T05:27:02.734Z,70.06
2022-09-22T05:29:43.222Z,69.02
2022-09-22T05:32:29.715Z,68.22
2022-09-22T05:35:11.654Z,69.13
2022-09-22T05:38:01.721Z,68.87
2022-09-22T05:40:48.775Z,68.35
2022-09-22T05:43:28.817Z,67.34
2022-09-22T05:46:08.681Z,68.24
2022-09-22T05:48:55.684Z,67.47
2022-09-22T05:51:42.697Z,66.39
2022-09-22T05:54:24.560Z,66.61
2022-09-22T05:57:11.648Z,65.30
2022-09-22T05:59:52.309Z,66.32
2022-09-22T06:02:38.692Z,66.50
2022-09-22T06:05:19.713Z,66.92
2022-09-22T06:08:14.660Z,64.96
2022-09-22T06:10:54.916Z,65.70
2022-09-22T06:13:41.641Z,66.92
2022-09-22T06:16:22.126Z,65.16
2022-09-22T06:19:08.640Z,65.44
2022-09-22T06:21:56.702Z,65.20
2022-09-22T06:24:36.644Z,64.52
2022-09-22T06:27:23.591Z,62.69
2022-09-22T06:30:10.657Z,61.13
2022-09-22T06:32:54.241Z,62.52
2022-09-22T06:35:44.593Z,60.31
2022-09-22T06:38:31.596Z,59.82
2022-09-22T06:41:11.721Z,60.96
2022-09-22T06:44:02.625Z,59.28
2022-09-22T06:46:49.610Z,58.80
2022-09-22T06:49:29.978Z,57.69
2022-09-22T06:52:16.589Z,58.93
2022-09-22T06:55:07.576Z,58.77
2022-09-22T06:57:47.673Z,59.35
2022-09-22T07:00:39.654Z,58.58
2022-09-22T07:03:28.734Z,58.05
2022-09-22T07:06:20.049Z,59.28
2022-09-22T07:09:00.786Z,58.47
2022-09-22T07:11:47.596Z,59.73
2022-09-22T07:14:29.195Z,57.72
2022-09-22T07:17:15.571Z,57.70
2022-09-22T07:20:02.528Z,58.25
2022-09-22T07:22:42.972Z,55.67
2022-09-22T07:25:29.571Z,55.28
2022-09-22T07:28:19.530Z,55.48
2022-09-22T07:31:07.611Z,56.41
2022-09-22T07:33:48.025Z,56.68
2022-09-22T07:36:36.536Z,55.98
2022-09-22T07:39:23.525Z,54.66
2022-09-22T07:42:10.563Z,53.81
2022-09-22T07:45:09.364Z,54.78
2022-09-22T07:48:15.548Z,55.13
2022-09-22T07:51:06.573Z,53.82
2022-09-22T07:53:54.517Z,53.99
2022-09-22T07:56:42.680Z,53.31
2022-09-22T07:59:23.503Z,51.87
2022-09-22T08:02:10.570Z,54.15
2022-09-22T08:04:50.632Z,52.27
2022-09-22T08:07:43.504Z,52.07
2022-09-22T08:10:26.110Z,53.40
2022-09-22T08:13:12.466Z,52.82
2022-09-22T08:16:02.546Z,52.46
2022-09-22T08:18:49.471Z,53.03
2022-09-22T08:21:48.482Z,52.40
2022-09-22T08:24:36.495Z,49.24
2022-09-22T08:27:16.639Z,42.91
2022-09-22T08:30:03.451Z,41.78
2022-09-22T08:32:50.466Z,39.42
2022-09-22T08:35:30.868Z,41.36
2022-09-22T08:38:17.465Z,41.02
2022-09-22T08:41:26.482Z,41.14
2022-09-22T08:44:15.855Z,43.02
2022-09-22T08:47:06.475Z,44.42
2022-09-22T08:50:13.085Z,43.08
2022-09-22T08:53:03.465Z,40.03
2022-09-22T08:55:53.423Z,39.26
2022-09-22T08:59:15.406Z,37.95
2022-09-22T09:02:27.597Z,36.57
2022-09-22T09:05:20.423Z,33.68
2022-09-22T09:09:11.074Z,37.26
2022-09-22T09:12:22.412Z,37.33
2022-09-22T09:15:15.404Z,36.21
2022-09-22T09:18:01.753Z,33.03
2022-09-22T09:21:01.406Z,32.35
2022-09-22T09:27:07.411Z,30.31
2022-09-22T09:30:24.397Z,29.34
2022-09-22T09:33:25.474Z,30.28
2022-09-22T09:36:20.395Z,28.45
2022-09-22T09:39:04.199Z,28.41
2022-09-22T09:41:55.450Z,31.24
2022-09-22T09:44:40.538Z,32.18
2022-09-22T09:48:12.390Z,32.96
2022-09-22T09:50:52.454Z,33.51
2022-09-22T09:53:47.365Z,33.92
2022-09-22T09:56:43.388Z,35.24
2022-09-22T09:59:52.391Z,37.17
2022-09-22T10:02:42.465Z,37.26
2022-09-22T10:05:33.377Z,36.78
2022-09-22T10:08:31.380Z,36.76
2022-09-22T10:11:15.050Z,38.75
2022-09-22T10:14:10.360Z,38.17
2022-09-22T10:16:52.124Z,39.29
2022-09-22T10:19:39.360Z,39.12
2022-09-22T10:22:31.373Z,39.94
2022-09-22T10:25:11.452Z,40.26
2022-09-22T10:28:11.326Z,39.82
2022-09-22T10:31:10.429Z,39.85
2022-09-22T10:34:05.361Z,39.94
2022-09-22T10:36:58.344Z,39.57
2022-09-22T10:40:00.341Z,40.34
2022-09-22T10:42:48.330Z,38.17
2022-09-22T10:46:05.390Z,37.51
2022-09-22T10:48:54.505Z,37.67
2022-09-22T10:52:10.323Z,37.95
2022-09-22T10:55:25.327Z,36.97
2022-09-22T10:58:15.308Z,36.80
2022-09-22T11:01:02.350Z,35.12
2022-09-22T11:03:52.460Z,35.94
2022-09-22T11:07:26.297Z,35.97
2022-09-22T11:11:02.283Z,37.71
2022-09-22T11:14:06.416Z,38.35
2022-09-22T11:16:56.293Z,39.21
2022-09-22T11:19:47.678Z,40.10
2022-09-22T11:22:43.265Z,40.49
2022-09-22T11:25:46.267Z,40.08
2022-09-22T11:28:35.556Z,39.23
2022-09-22T11:31:43.272Z,39.70
2022-09-22T11:34:54.291Z,40.73
2022-09-22T11:37:46.489Z,41.42
2022-09-22T11:43:44.042Z,41.55
2022-09-22T11:46:55.275Z,41.23
2022-09-22T11:50:10.384Z,40.60
2022-09-22T11:53:11.255Z,40.61
2022-09-22T11:56:23.252Z,40.48
2022-09-22T11:59:09.339Z,39.33
2022-09-22T12:01:57.251Z,39.69
2022-09-22T12:04:46.388Z,39.39
2022-09-22T12:07:38.250Z,39.24
2022-09-22T12:10:41.355Z,39.22
2022-09-22T12:13:31.191Z,39.34
2022-09-22T12:16:18.235Z,39.33
2022-09-22T12:19:26.200Z,39.02
2022-09-22T12:22:32.257Z,39.23
2022-09-22T12:25:45.125Z,40.29
2022-09-22T12:28:37.227Z,40.94
2022-09-22T12:31:28.225Z,40.22
2022-09-22T12:34:30.246Z,38.90
2022-09-22T12:37:26.211Z,38.97
2022-09-22T12:40:32.209Z,39.94
2022-09-22T12:43:12.284Z,39.95
2022-09-22T12:46:01.258Z,42.21
2022-09-22T12:48:44.513Z,41.72
2022-09-22T12:51:31.181Z,41.64
2022-09-22T12:54:29.308Z,42.39
2022-09-22T12:57:16.203Z,41.49
2022-09-22T13:00:20.837Z,41.80
2022-09-22T13:03:28.191Z,42.66
2022-09-22T13:06:30.246Z,42.45
2022-09-22T13:09:28.193Z,42.73
2022-09-22T13:12:18.827Z,41.94
2022-09-22T13:15:14.176Z,41.74
2022-09-22T13:17:57.188Z,41.97
2022-09-22T13:20:50.234Z,41.21
2022-09-22T13:23:37.168Z,40.53
2022-09-22T13:26:52.225Z,40.11
2022-09-22T13:29:39.142Z,39.52
2022-09-22T13:32:28.061Z,39.80
2022-09-22T13:35:32.195Z,40.07
2022-09-22T13:38:19.110Z,40.66
2022-09-22T13:41:06.329Z,39.58
2022-09-22T13:43:51.154Z,39.36
2022-09-22T13:46:57.135Z,39.59
2022-09-22T13:49:54.132Z,39.52
2022-09-22T13:52:45.169Z,40.11
2022-09-22T13:55:39.198Z,40.44
2022-09-22T13:58:37.123Z,39.29
2022-09-22T14:01:29.271Z,39.83
2022-09-22T14:04:34.120Z,39.56
2022-09-22T14:07:16.477Z,39.57
2022-09-22T14:10:09.090Z,39.28
2022-09-22T14:12:56.139Z,39.67
2022-09-22T14:15:50.073Z,39.75
2022-09-22T14:18:40.120Z,39.09
2022-09-22T14:21:21.601Z,40.06
2022-09-22T14:24:08.102Z,39.81
2022-09-22T14:27:03.060Z,39.95
2022-09-22T14:29:46.087Z,40.02
2022-09-22T14:32:51.088Z,40.00
2022-09-22T14:35:31.676Z,39.24
2022-09-22T14:38:26.082Z,40.48
2022-09-22T14:41:06.193Z,40.90
2022-09-22T14:43:53.028Z,40.95
2022-09-22T14:46:48.043Z,40.81
2022-09-22T14:49:44.079Z,41.13
2022-09-22T14:52:35.194Z,40.82
2022-09-22T14:55:30.071Z,40.75
2022-09-22T14:58:21.122Z,42.10
2022-09-22T15:01:35.123Z,42.35
2022-09-22T15:04:33.161Z,42.37
2022-09-22T15:07:28.833Z,42.77
2022-09-22T15:10:45.873Z,43.31
2022-09-22T15:27:39.662Z,44.10
2022-09-22T15:30:22.111Z,44.59
2022-09-22T15:33:10.697Z,43.79
2022-09-22T15:36:02.823Z,44.57
2022-09-22T15:38:44.705Z,44.75
2022-09-22T15:41:25.100Z,44.66
2022-09-22T15:44:11.854Z,45.18
2022-09-22T15:46:54.456Z,44.66
2022-09-22T15:49:40.826Z,45.41
2022-09-22T15:52:21.286Z,45.11
2022-09-22T15:55:07.819Z,45.62
2022-09-22T15:57:50.946Z,46.17
2022-09-22T16:00:37.878Z,47.06
2022-09-22T16:03:28.887Z,46.99
2022-09-22T16:06:18.844Z,47.30
2022-09-22T16:08:59.380Z,47.86
2022-09-22T16:11:45.840Z,47.89
2022-09-22T16:14:26.216Z,47.91
2022-09-22T16:17:13.859Z,48.31
2022-09-22T16:19:54.213Z,48.15
2022-09-22T16:22:42.841Z,48.54
2022-09-22T16:25:37.829Z,49.25
2022-09-22T16:28:18.191Z,48.97
2022-09-22T16:31:04.870Z,49.09
2022-09-22T16:33:51.806Z,49.72
2022-09-22T16:36:42.816Z,49.68
2022-09-22T16:39:29.837Z,49.33
2022-09-22T16:42:09.940Z,49.87
2022-09-22T16:44:56.797Z,50.42
2022-09-22T16:47:36.901Z,50.06
2022-09-22T16:50:23.812Z,50.10
2022-09-22T16:53:03.938Z,50.03
2022-09-22T16:55:59.779Z,49.83
2022-09-22T16:58:46.760Z,50.47
2022-09-22T17:01:34.899Z,50.63
2022-09-22T17:04:16.442Z,50.53
2022-09-22T17:07:02.751Z,51.26
2022-09-22T17:09:49.779Z,51.30
2022-09-22T17:12:30.138Z,52.03
2022-09-22T17:15:19.751Z,52.16
2022-09-22T17:18:00.150Z,51.49
2022-09-22T17:20:46.771Z,51.39
2022-09-22T17:23:33.752Z,51.21
2022-09-22T17:26:20.856Z,51.27
2022-09-22T17:29:00.766Z,51.22
2022-09-22T17:31:47.791Z,51.20
2022-09-22T17:34:34.737Z,51.64
2022-09-22T17:37:15.621Z,51.57
2022-09-22T17:40:02.796Z,51.32
2022-09-22T17:42:50.126Z,51.96
2022-09-22T17:45:29.753Z,52.03
2022-09-22T17:48:28.551Z,52.60
2022-09-22T17:51:34.701Z,53.11
2022-09-22T17:54:47.751Z,53.42
2022-09-22T17:57:35.796Z,53.87
2022-09-22T18:00:27.689Z,53.89
2022-09-22T18:03:14.759Z,54.24
2022-09-22T18:06:02.779Z,54.47
2022-09-22T18:08:51.675Z,54.68
2022-09-22T18:11:32.053Z,54.54
2022-09-22T18:14:18.755Z,54.66
2022-09-22T18:17:05.712Z,55.09
2022-09-22T18:19:49.842Z,55.26
2022-09-22T18:22:37.678Z,55.76
2022-09-22T18:25:25.722Z,55.83
2022-09-22T18:28:19.631Z,55.95
2022-09-22T18:31:00.017Z,56.34
2022-09-22T18:33:46.676Z,56.74
2022-09-22T18:36:27.416Z,57.54
2022-09-22T18:39:15.669Z,57.80
2022-09-22T18:42:02.639Z,58.20
2022-09-22T18:45:25.654Z,58.71
2022-09-22T18:48:21.914Z,58.56
2022-09-22T18:51:12.605Z,59.15
2022-09-22T18:54:00.590Z,59.71
2022-09-22T18:56:45.796Z,60.27
2022-09-22T18:59:33.641Z,60.27
2022-09-22T19:02:15.898Z,60.44
2022-09-22T19:05:02.616Z,59.24
2022-09-22T19:07:45.805Z,58.96
2022-09-22T19:10:32.617Z,59.35
2022-09-22T19:13:19.577Z,59.92
2022-09-22T19:16:00.043Z,59.80
2022-09-22T19:18:46.592Z,60.31
2022-09-22T19:21:26.983Z,59.93
2022-09-22T19:24:14.621Z,59.56
2022-09-22T19:27:11.601Z,59.48
2022-09-22T19:29:52.658Z,59.47
2022-09-22T19:32:39.548Z,60.21
2022-09-22T19:35:26.600Z,60.91
2022-09-22T19:38:13.588Z,61.04
2022-09-22T19:40:56.137Z,61.09
2022-09-22T19:43:42.604Z,61.27
2022-09-22T19:46:24.399Z,61.81
2022-09-22T19:49:12.643Z,61.20
2022-09-22T19:51:53.868Z,61.77
2022-09-22T19:54:40.570Z,61.72
2022-09-22T19:57:25.408Z,61.25
2022-09-22T20:00:15.560Z,61.85
2022-09-22T20:03:07.595Z,61.19
2022-09-22T20:05:54.574Z,60.73
2022-09-22T20:12:03.673Z,60.01
2022-09-22T20:14:52.041Z,60.19
2022-09-22T20:17:39.240Z,60.03
2022-09-22T20:20:25.892Z,60.55
2022-09-22T20:26:35.580Z,60.96
2022-09-22T20:29:17.085Z,60.50
2022-09-22T20:32:03.527Z,60.35
2022-09-22T20:34:43.967Z,60.75
2022-09-22T20:37:30.533Z,59.86
2022-09-22T20:40:27.520Z,59.47
2022-09-22T20:43:14.502Z,60.27
2022-09-22T20:46:07.698Z,60.15
2022-09-22T20:48:47.469Z,60.88
2022-09-22T20:51:28.529Z,60.73
2022-09-22T20:54:15.478Z,60.64
2022-09-22T20:56:55.902Z,60.96
2022-09-22T20:59:42.484Z,61.50
2022-09-22T21:02:23.423Z,61.15
2022-09-22T21:05:10.495Z,61.21
2022-09-22T21:08:10.805Z,60.95
2022-09-22T21:11:00.468Z,62.02
2022-09-22T21:13:48.424Z,61.12
2022-09-22T21:16:35.510Z,61.19
2022-09-22T21:19:15.801Z,61.41
2022-09-22T21:22:02.481Z,61.49
2022-09-22T21:24:52.443Z,60.79
2022-09-22T21:27:39.587Z,60.92
2022-09-22T21:30:19.461Z,61.53
2022-09-22T21:32:59.826Z,60.83
2022-09-22T21:35:46.437Z,61.81
2022-09-22T21:38:27.084Z,63.52
2022-09-22T21:41:14.420Z,63.93
2022-09-22T21:43:55.745Z,65.37
2022-09-22T21:46:47.413Z,66.89
2022-09-22T21:49:35.410Z,67.72
2022-09-22T21:52:22.398Z,68.59
2022-09-22T21:55:02.818Z,69.88
2022-09-22T21:57:49.405Z,72.19
2022-09-22T22:00:50.750Z,72.50
2022-09-22T22:03:39.435Z,73.30
2022-09-22T22:06:28.319Z,73.49
2022-09-22T22:09:21.388Z,73.29
2022-09-22T22:12:02.345Z,74.78
2022-09-22T22:14:52.353Z,74.73
2022-09-22T22:17:39.371Z,74.27
2022-09-22T22:20:26.375Z,74.27
2022-09-22T22:23:07.176Z,73.24
2022-09-22T22:25:54.398Z,73.99
2022-09-22T22:28:35.111Z,72.55
2022-09-22T22:31:26.438Z,73.38
2022-09-22T22:34:18.334Z,73.00
2022-09-22T22:37:05.353Z,72.73
2022-09-22T22:39:45.730Z,73.21
2022-09-22T22:42:32.362Z,73.87
2022-09-22T22:45:19.306Z,74.44
2022-09-22T22:47:59.461Z,73.50
2022-09-22T22:50:46.313Z,73.81
2022-09-22T22:53:34.377Z,73.52
2022-09-22T22:56:20.148Z,73.61
2022-09-22T22:59:07.430Z,73.93
2022-09-22T23:01:54.453Z,74.20
2022-09-22T23:04:41.276Z,73.73
2022-09-22T23:07:21.663Z,73.97
2022-09-22T23:10:17.272Z,73.09
2022-09-22T23:12:57.745Z,72.93
2022-09-22T23:15:47.389Z,73.71
2022-09-22T23:18:27.700Z,73.07
2022-09-22T23:21:16.398Z,73.12
2022-09-22T23:24:08.283Z,73.68
2022-09-22T23:26:56.297Z,73.28
2022-09-22T23:29:51.029Z,73.52
2022-09-22T23:32:38.430Z,74.00
2022-09-22T23:35:19.297Z,74.18
2022-09-22T23:38:09.026Z,74.60
2022-09-22T23:40:49.427Z,75.62
2022-09-22T23:43:38.278Z,76.00
2022-09-22T23:46:18.440Z,75.65
2022-09-22T23:49:06.268Z,77.50
2022-09-22T23:51:53.276Z,77.79
2022-09-22T23:54:40.279Z,78.19
2022-09-22T23:57:27.299Z,78.12
